createdAt,value
2023-05-10T00:00:16.428Z,202
2023-05-10T00:05:15.949Z,202
2023-05-10T00:10:16.265Z,202
2023-05-10T00:15:16.069Z,202
2023-05-10T00:20:16.329Z,202
2023-05-10T00:25:16.112Z,202
2023-05-10T00:30:16.424Z,202
2023-05-10T00:35:16.042Z,202
2023-05-10T00:40:16.315Z,202
2023-05-10T00:45:16.019Z,202
2023-05-10T00:50:16.357Z,202
2023-05-10T00:55:16.103Z,202
2023-05-10T01:00:16.329Z,202
2023-05-10T01:05:16.163Z,202
2023-05-10T01:10:16.531Z,202
2023-05-10T01:15:16.131Z,202
2023-05-10T01:20:16.477Z,202
2023-05-10T01:25:16.201Z,202
2023-05-10T01:30:16.423Z,202
2023-05-10T01:35:16.163Z,202
2023-05-10T01:40:16.478Z,202
2023-05-10T01:45:16.180Z,202
2023-05-10T01:50:16.553Z,202
2023-05-10T01:55:16.202Z,202
2023-05-10T02:00:16.589Z,202
2023-05-10T02:05:16.143Z,202
2023-05-10T02:10:16.500Z,202
2023-05-10T02:15:16.286Z,202
2023-05-10T02:20:16.610Z,202
2023-05-10T02:25:16.293Z,202
2023-05-10T02:30:16.430Z,225
2023-05-10T02:35:16.370Z,225
2023-05-10T02:40:16.532Z,225
2023-05-10T02:45:16.305Z,225
2023-05-10T02:50:16.987Z,225
2023-05-10T02:55:16.625Z,225
2023-05-10T03:00:16.534Z,225
2023-05-10T03:05:16.405Z,225
2023-05-10T03:10:16.667Z,225
2023-05-10T03:15:16.326Z,225
2023-05-10T03:20:16.663Z,202
2023-05-10T03:25:16.376Z,202
2023-05-10T03:30:16.741Z,202
2023-05-10T03:35:16.456Z,202
2023-05-10T03:40:16.664Z,202
2023-05-10T03:45:16.467Z,202
2023-05-10T03:50:16.526Z,225
2023-05-10T03:55:16.423Z,225
2023-05-10T04:00:15.993Z,225
2023-05-10T04:05:15.383Z,225
2023-05-10T04:10:15.837Z,225
2023-05-10T04:15:15.503Z,225
2023-05-10T04:20:16.017Z,225
2023-05-10T04:25:15.643Z,225
2023-05-10T04:30:15.725Z,248
2023-05-10T04:35:15.538Z,315
2023-05-10T04:40:15.914Z,315
2023-05-10T04:45:15.580Z,270
2023-05-10T04:50:16.015Z,270
2023-05-10T04:55:15.518Z,338
2023-05-10T05:00:15.625Z,338
2023-05-10T05:05:15.586Z,338
2023-05-10T05:15:15.681Z,338
2023-05-10T05:20:15.913Z,338
2023-05-10T05:25:15.596Z,338
2023-05-10T05:30:15.968Z,315
2023-05-10T05:35:15.930Z,315
2023-05-10T05:40:15.665Z,315
2023-05-10T05:45:15.807Z,315
2023-05-10T06:15:16.050Z,315
2023-05-10T06:30:15.858Z,315
2023-05-10T06:45:16.531Z,315
2023-05-10T06:50:16.002Z,315
2023-05-10T06:55:16.118Z,315
2023-05-10T07:05:16.013Z,315
2023-05-10T07:45:16.368Z,315
2023-05-10T07:50:15.933Z,45
2023-05-10T07:55:16.162Z,45
2023-05-10T08:00:15.982Z,45
2023-05-10T08:35:16.297Z,45
2023-05-10T09:05:16.215Z,45
2023-05-10T09:10:16.198Z,45
2023-05-10T09:15:16.300Z,45
2023-05-10T09:20:16.068Z,45
2023-05-10T09:25:16.390Z,45
2023-05-10T09:30:16.059Z,45
2023-05-10T09:35:16.502Z,45
2023-05-10T09:40:16.179Z,45
2023-05-10T09:45:16.397Z,45
2023-05-10T09:55:16.427Z,45
2023-05-10T10:00:16.089Z,45
2023-05-10T10:05:16.378Z,45
2023-05-10T10:10:16.280Z,45
2023-05-10T10:15:16.818Z,45
2023-05-10T10:35:16.432Z,45
2023-05-10T10:40:16.296Z,45
2023-05-10T10:45:16.481Z,45
2023-05-10T10:50:16.275Z,45
2023-05-10T10:55:16.546Z,45
2023-05-10T11:00:16.241Z,45
2023-05-10T11:05:16.486Z,292
2023-05-10T11:10:16.356Z,292
2023-05-10T11:15:16.532Z,292
2023-05-10T11:20:16.845Z,315
2023-05-10T11:25:16.456Z,315
2023-05-10T11:30:16.666Z,315
2023-05-10T11:35:16.354Z,315
2023-05-10T11:40:16.764Z,292
2023-05-10T11:45:16.484Z,292
2023-05-10T11:50:16.633Z,292
2023-05-10T11:55:16.521Z,292
2023-05-10T12:00:16.638Z,292
2023-05-10T12:05:16.413Z,315
2023-05-10T12:10:16.729Z,292
2023-05-10T12:15:16.417Z,292
2023-05-10T12:20:16.850Z,292
2023-05-10T12:25:16.444Z,292
2023-05-10T12:30:16.649Z,292
2023-05-10T12:35:16.521Z,270
2023-05-10T12:40:16.732Z,292
2023-05-10T12:45:16.486Z,270
2023-05-10T12:50:16.883Z,292
2023-05-10T12:55:16.574Z,270
2023-05-10T13:00:16.652Z,292
2023-05-10T13:05:16.578Z,292
2023-05-10T13:10:16.759Z,270
2023-05-10T13:15:16.505Z,270
2023-05-10T13:20:17.260Z,292
2023-05-10T13:25:16.617Z,292
2023-05-10T13:30:16.694Z,292
2023-05-10T13:35:16.640Z,270
2023-05-10T13:40:16.888Z,292
2023-05-10T13:45:16.829Z,315
2023-05-10T13:50:16.577Z,315
2023-05-10T13:55:17.006Z,315
2023-05-10T14:00:16.694Z,338
2023-05-10T14:05:17.345Z,315
2023-05-10T14:10:16.800Z,338
2023-05-10T14:15:17.084Z,315
2023-05-10T14:20:16.675Z,315
2023-05-10T14:25:17.032Z,315
2023-05-10T14:30:16.710Z,315
2023-05-10T14:35:19.453Z,315
2023-05-10T14:40:16.873Z,315
2023-05-10T14:45:17.026Z,315
2023-05-10T14:50:24.966Z,315
2023-05-10T14:55:16.999Z,315
2023-05-10T15:00:16.995Z,315
2023-05-10T15:05:17.270Z,315
2023-05-10T15:10:16.920Z,292
2023-05-10T15:15:17.111Z,315
2023-05-10T15:20:16.755Z,338
2023-05-10T15:25:17.103Z,0
2023-05-10T15:30:16.820Z,315
2023-05-10T15:35:17.060Z,315
2023-05-10T15:40:16.790Z,315
2023-05-10T15:45:17.160Z,0
2023-05-10T15:50:16.879Z,315
2023-05-10T15:55:17.070Z,315
2023-05-10T16:00:16.832Z,315
2023-05-10T16:05:17.210Z,338
2023-05-10T16:10:17.021Z,0
2023-05-10T16:15:17.118Z,0
2023-05-10T16:20:16.896Z,22
2023-05-10T16:25:17.228Z,0
2023-05-10T16:30:16.970Z,338
2023-05-10T16:35:17.361Z,315
2023-05-10T16:40:17.086Z,338
2023-05-10T16:45:17.214Z,315
2023-05-10T16:50:17.126Z,338
2023-05-10T16:55:17.277Z,338
2023-05-10T17:00:17.030Z,0
2023-05-10T17:05:17.349Z,0
2023-05-10T17:10:16.968Z,338
2023-05-10T17:15:17.366Z,292
2023-05-10T17:20:17.067Z,338
2023-05-10T17:25:17.361Z,338
2023-05-10T17:30:17.160Z,315
2023-05-10T17:35:17.287Z,292
2023-05-10T17:40:17.112Z,292
2023-05-10T17:45:17.410Z,292
2023-05-10T17:50:17.181Z,315
2023-05-10T17:55:17.445Z,292
2023-05-10T18:00:17.119Z,315
2023-05-10T18:05:17.605Z,292
2023-05-10T18:10:17.272Z,0
2023-05-10T18:15:17.367Z,0
2023-05-10T18:20:17.100Z,0
2023-05-10T18:25:17.688Z,338
2023-05-10T18:30:17.175Z,338
2023-05-10T18:35:17.278Z,0
2023-05-10T18:40:17.179Z,338
2023-05-10T18:45:17.468Z,315
2023-05-10T18:50:17.238Z,270
2023-05-10T18:55:17.414Z,270
2023-05-10T19:00:17.240Z,292
2023-05-10T19:05:16.174Z,292
2023-05-10T19:10:17.250Z,292
2023-05-10T19:15:19.262Z,292
2023-05-10T19:20:17.369Z,292
2023-05-10T19:25:17.689Z,292
2023-05-10T19:30:17.330Z,292
2023-05-10T19:35:17.474Z,270
2023-05-10T19:40:17.454Z,270
2023-05-10T19:45:17.685Z,270
2023-05-10T19:50:18.180Z,292
2023-05-10T19:55:17.701Z,292
2023-05-10T20:00:17.364Z,292
2023-05-10T20:05:17.469Z,292
2023-05-10T20:10:17.412Z,315
2023-05-10T20:15:15.733Z,315
2023-05-10T20:20:15.991Z,315
2023-05-10T20:25:15.478Z,270
2023-05-10T20:30:15.918Z,292
2023-05-10T20:35:15.471Z,292
2023-05-10T20:40:15.517Z,292
2023-05-10T20:45:15.416Z,270
2023-05-10T20:50:15.699Z,292
2023-05-10T20:55:15.485Z,292
2023-05-10T21:00:15.634Z,270
2023-05-10T21:05:15.523Z,248
2023-05-10T21:10:15.709Z,248
2023-05-10T21:15:15.538Z,202
2023-05-10T21:20:15.745Z,180
2023-05-10T21:25:15.620Z,180
2023-05-10T21:30:15.599Z,180
2023-05-10T21:35:15.569Z,180
2023-05-10T21:40:15.759Z,180
2023-05-10T21:45:15.700Z,180
2023-05-10T21:50:15.746Z,180
2023-05-10T21:55:15.588Z,202
2023-05-10T22:00:15.839Z,202
2023-05-10T22:05:15.617Z,202
2023-05-10T22:10:15.807Z,202
2023-05-10T22:15:15.762Z,180
2023-05-10T22:20:15.977Z,180
2023-05-10T22:25:15.672Z,158
2023-05-10T22:30:15.976Z,112
2023-05-10T22:35:15.728Z,158
2023-05-10T22:40:15.941Z,180
2023-05-10T22:45:15.647Z,180
2023-05-10T22:50:15.867Z,180
2023-05-10T22:55:15.760Z,135
2023-05-10T23:00:16.156Z,135
2023-05-10T23:05:15.734Z,135
2023-05-10T23:10:15.786Z,135
2023-05-10T23:15:15.783Z,135
2023-05-10T23:20:16.174Z,135
2023-05-10T23:25:15.750Z,135
2023-05-10T23:30:16.085Z,135
2023-05-10T23:35:15.827Z,158
2023-05-10T23:40:16.028Z,158
2023-05-10T23:45:15.948Z,158
